sensor_id;sensor_type;location;lat;lon;timestamp;P1;durP1;ratioP1;P2;durP2;ratioP2
3036;SDS011;1528;52.550;13.408;2023-03-31T00:01:23;16.83;;;16.03;;
3036;SDS011;1528;52.550;13.408;2023-03-31T00:04:09;18.07;;;17.07;;
3036;SDS011;1528;52.550;13.408;2023-03-31T00:06:55;16.13;;;15.30;;
3036;SDS011;1528;52.550;13.408;2023-03-31T00:09:41;18.50;;;17.20;;
3036;SDS011;1528;52.550;13.408;2023-03-31T00:12:30;19.50;;;18.30;;
3036;SDS011;1528;52.550;13.408;2023-03-31T00:15:15;18.87;;;17.87;;
3036;SDS011;1528;52.550;13.408;2023-03-31T00:18:01;17.40;;;16.53;;
3036;SDS011;1528;52.550;13.408;2023-03-31T00:20:47;17.67;;;16.90;;
3036;SDS011;1528;52.550;13.408;2023-03-31T00:23:32;17.63;;;16.73;;
3036;SDS011;1528;52.550;13.408;2023-03-31T00:26:18;15.60;;;14.77;;
3036;SDS011;1528;52.550;13.408;2023-03-31T00:29:06;16.13;;;15.33;;
3036;SDS011;1528;52.550;13.408;2023-03-31T00:31:54;18.83;;;17.77;;
3036;SDS011;1528;52.550;13.408;2023-03-31T00:34:40;14.10;;;13.60;;
3036;SDS011;1528;52.550;13.408;2023-03-31T00:37:27;15.10;;;14.40;;
3036;SDS011;1528;52.550;13.408;2023-03-31T00:40:13;16.03;;;15.17;;
3036;SDS011;1528;52.550;13.408;2023-03-31T00:42:58;18.30;;;17.50;;
3036;SDS011;1528;52.550;13.408;2023-03-31T00:45:47;15.23;;;14.03;;
3036;SDS011;1528;52.550;13.408;2023-03-31T00:48:32;18.23;;;17.43;;
3036;SDS011;1528;52.550;13.408;2023-03-31T00:51:20;16.50;;;15.20;;
3036;SDS011;1528;52.550;13.408;2023-03-31T00:54:06;12.63;;;12.03;;
3036;SDS011;1528;52.550;13.408;2023-03-31T00:56:52;16.07;;;15.20;;
3036;SDS011;1528;52.550;13.408;2023-03-31T00:59:42;14.80;;;14.10;;
3036;SDS011;1528;52.550;13.408;2023-03-31T01:02:31;15.83;;;14.97;;
3036;SDS011;1528;52.550;13.408;2023-03-31T01:05:16;16.13;;;15.43;;
3036;SDS011;1528;52.550;13.408;2023-03-31T01:08:04;15.53;;;14.63;;
3036;SDS011;1528;52.550;13.408;2023-03-31T01:10:51;15.53;;;14.43;;
3036;SDS011;1528;52.550;13.408;2023-03-31T01:13:38;14.67;;;13.93;;
3036;SDS011;1528;52.550;13.408;2023-03-31T01:16:25;14.77;;;13.97;;
3036;SDS011;1528;52.550;13.408;2023-03-31T01:19:16;16.93;;;16.03;;
3036;SDS011;1528;52.550;13.408;2023-03-31T01:22:20;12.70;;;12.00;;
3036;SDS011;1528;52.550;13.408;2023-03-31T01:25:51;14.37;;;13.63;;
3036;SDS011;1528;52.550;13.408;2023-03-31T01:29:00;14.77;;;14.00;;
3036;SDS011;1528;52.550;13.408;2023-03-31T01:32:04;18.20;;;17.47;;
3036;SDS011;1528;52.550;13.408;2023-03-31T01:38:58;17.80;;;16.73;;
3036;SDS011;1528;52.550;13.408;2023-03-31T01:42:06;15.30;;;14.33;;
3036;SDS011;1528;52.550;13.408;2023-03-31T01:44:57;16.20;;;15.50;;
3036;SDS011;1528;52.550;13.408;2023-03-31T01:47:50;16.10;;;15.07;;
3036;SDS011;1528;52.550;13.408;2023-03-31T01:50:42;15.13;;;14.53;;
3036;SDS011;1528;52.550;13.408;2023-03-31T01:53:32;16.70;;;16.00;;
3036;SDS011;1528;52.550;13.408;2023-03-31T01:56:24;12.73;;;12.10;;
3036;SDS011;1528;52.550;13.408;2023-03-31T01:59:16;13.07;;;12.47;;
3036;SDS011;1528;52.550;13.408;2023-03-31T02:02:09;14.00;;;13.30;;
3036;SDS011;1528;52.550;13.408;2023-03-31T02:05:02;15.27;;;14.67;;
3036;SDS011;1528;52.550;13.408;2023-03-31T02:07:52;13.67;;;13.07;;
3036;SDS011;1528;52.550;13.408;2023-03-31T02:10:41;12.83;;;12.13;;
3036;SDS011;1528;52.550;13.408;2023-03-31T02:13:29;14.43;;;13.53;;
3036;SDS011;1528;52.550;13.408;2023-03-31T02:16:20;15.70;;;15.00;;
3036;SDS011;1528;52.550;13.408;2023-03-31T02:19:10;15.73;;;15.13;;
3036;SDS011;1528;52.550;13.408;2023-03-31T02:21:56;14.27;;;13.53;;
3036;SDS011;1528;52.550;13.408;2023-03-31T02:24:44;14.17;;;13.57;;
3036;SDS011;1528;52.550;13.408;2023-03-31T02:27:31;11.33;;;10.93;;
3036;SDS011;1528;52.550;13.408;2023-03-31T02:30:20;16.27;;;15.07;;
3036;SDS011;1528;52.550;13.408;2023-03-31T02:33:07;12.30;;;11.60;;
3036;SDS011;1528;52.550;13.408;2023-03-31T02:35:52;12.47;;;11.97;;
3036;SDS011;1528;52.550;13.408;2023-03-31T02:38:38;12.07;;;11.47;;
3036;SDS011;1528;52.550;13.408;2023-03-31T02:41:29;12.10;;;11.57;;
3036;SDS011;1528;52.550;13.408;2023-03-31T02:44:15;12.40;;;11.90;;
3036;SDS011;1528;52.550;13.408;2023-03-31T02:47:01;12.10;;;11.40;;
3036;SDS011;1528;52.550;13.408;2023-03-31T02:49:50;13.63;;;12.83;;
3036;SDS011;1528;52.550;13.408;2023-03-31T02:52:49;15.10;;;14.43;;
3036;SDS011;1528;52.550;13.408;2023-03-31T02:55:47;14.03;;;13.23;;
3036;SDS011;1528;52.550;13.408;2023-03-31T02:58:46;13.80;;;13.30;;
3036;SDS011;1528;52.550;13.408;2023-03-31T03:01:49;12.80;;;12.30;;
3036;SDS011;1528;52.550;13.408;2023-03-31T03:04:47;12.40;;;11.50;;
3036;SDS011;1528;52.550;13.408;2023-03-31T03:07:45;11.77;;;11.27;;
3036;SDS011;1528;52.550;13.408;2023-03-31T03:10:41;13.30;;;12.63;;
3036;SDS011;1528;52.550;13.408;2023-03-31T03:13:38;13.87;;;13.30;;
3036;SDS011;1528;52.550;13.408;2023-03-31T03:16:31;13.37;;;12.63;;
3036;SDS011;1528;52.550;13.408;2023-03-31T03:19:20;15.37;;;14.57;;
3036;SDS011;1528;52.550;13.408;2023-03-31T03:22:08;12.03;;;11.53;;
3036;SDS011;1528;52.550;13.408;2023-03-31T03:24:54;12.20;;;11.60;;
3036;SDS011;1528;52.550;13.408;2023-03-31T03:27:40;11.53;;;11.00;;
3036;SDS011;1528;52.550;13.408;2023-03-31T03:30:25;10.87;;;10.47;;
3036;SDS011;1528;52.550;13.408;2023-03-31T03:33:11;13.77;;;13.10;;
3036;SDS011;1528;52.550;13.408;2023-03-31T03:35:59;16.20;;;15.40;;
3036;SDS011;1528;52.550;13.408;2023-03-31T03:38:46;14.67;;;13.97;;
3036;SDS011;1528;52.550;13.408;2023-03-31T03:41:32;15.13;;;14.47;;
3036;SDS011;1528;52.550;13.408;2023-03-31T03:44:18;14.63;;;13.70;;
3036;SDS011;1528;52.550;13.408;2023-03-31T03:47:04;13.30;;;12.70;;
3036;SDS011;1528;52.550;13.408;2023-03-31T03:49:49;13.50;;;12.80;;
3036;SDS011;1528;52.550;13.408;2023-03-31T03:52:35;14.10;;;13.27;;
3036;SDS011;1528;52.550;13.408;2023-03-31T03:55:23;13.87;;;13.27;;
3036;SDS011;1528;52.550;13.408;2023-03-31T03:58:09;12.80;;;12.30;;
3036;SDS011;1528;52.550;13.408;2023-03-31T04:00:55;11.77;;;11.37;;
3036;SDS011;1528;52.550;13.408;2023-03-31T04:03:41;13.97;;;13.47;;
3036;SDS011;1528;52.550;13.408;2023-03-31T04:06:27;12.93;;;12.33;;
3036;SDS011;1528;52.550;13.408;2023-03-31T04:09:12;13.53;;;12.67;;
3036;SDS011;1528;52.550;13.408;2023-03-31T04:11:59;12.77;;;12.27;;
3036;SDS011;1528;52.550;13.408;2023-03-31T04:14:45;12.47;;;11.70;;
3036;SDS011;1528;52.550;13.408;2023-03-31T04:17:31;12.97;;;12.10;;
3036;SDS011;1528;52.550;13.408;2023-03-31T04:20:17;14.73;;;14.03;;
3036;SDS011;1528;52.550;13.408;2023-03-31T04:23:03;13.17;;;12.57;;
3036;SDS011;1528;52.550;13.408;2023-03-31T04:25:52;15.97;;;15.27;;
3036;SDS011;1528;52.550;13.408;2023-03-31T04:28:39;12.80;;;12.20;;
3036;SDS011;1528;52.550;13.408;2023-03-31T04:31:29;14.47;;;13.80;;
3036;SDS011;1528;52.550;13.408;2023-03-31T04:34:14;13.27;;;12.47;;
3036;SDS011;1528;52.550;13.408;2023-03-31T04:37:00;14.73;;;14.00;;
3036;SDS011;1528;52.550;13.408;2023-03-31T04:39:46;19.17;;;18.30;;
3036;SDS011;1528;52.550;13.408;2023-03-31T04:42:33;14.17;;;13.67;;
3036;SDS011;1528;52.550;13.408;2023-03-31T04:45:20;12.10;;;11.43;;
3036;SDS011;1528;52.550;13.408;2023-03-31T04:48:05;13.37;;;12.83;;
3036;SDS011;1528;52.550;13.408;2023-03-31T04:50:51;15.40;;;14.60;;
3036;SDS011;1528;52.550;13.408;2023-03-31T04:53:37;13.33;;;12.60;;
3036;SDS011;1528;52.550;13.408;2023-03-31T04:56:23;14.37;;;13.60;;
3036;SDS011;1528;52.550;13.408;2023-03-31T04:59:09;13.97;;;13.30;;
3036;SDS011;1528;52.550;13.408;2023-03-31T05:01:56;13.40;;;12.70;;
3036;SDS011;1528;52.550;13.408;2023-03-31T05:04:41;17.40;;;16.50;;
3036;SDS011;1528;52.550;13.408;2023-03-31T05:07:27;16.17;;;15.57;;
3036;SDS011;1528;52.550;13.408;2023-03-31T05:10:13;12.80;;;12.20;;
3036;SDS011;1528;52.550;13.408;2023-03-31T05:12:58;14.07;;;13.37;;
3036;SDS011;1528;52.550;13.408;2023-03-31T05:15:44;14.13;;;13.53;;
3036;SDS011;1528;52.550;13.408;2023-03-31T05:18:34;14.43;;;13.73;;
3036;SDS011;1528;52.550;13.408;2023-03-31T05:21:20;14.77;;;13.97;;
3036;SDS011;1528;52.550;13.408;2023-03-31T05:24:07;16.30;;;15.60;;
3036;SDS011;1528;52.550;13.408;2023-03-31T05:26:53;19.37;;;18.47;;
3036;SDS011;1528;52.550;13.408;2023-03-31T05:29:40;21.27;;;20.30;;
3036;SDS011;1528;52.550;13.408;2023-03-31T05:32:26;23.30;;;22.23;;
3036;SDS011;1528;52.550;13.408;2023-03-31T05:35:13;21.00;;;20.10;;
3036;SDS011;1528;52.550;13.408;2023-03-31T05:37:58;21.93;;;21.13;;
3036;SDS011;1528;52.550;13.408;2023-03-31T05:40:44;19.07;;;18.27;;
3036;SDS011;1528;52.550;13.408;2023-03-31T05:43:29;22.67;;;21.87;;
3036;SDS011;1528;52.550;13.408;2023-03-31T05:46:15;22.90;;;21.83;;
3036;SDS011;1528;52.550;13.408;2023-03-31T05:49:06;21.40;;;20.40;;
3036;SDS011;1528;52.550;13.408;2023-03-31T05:51:55;21.80;;;21.10;;
3036;SDS011;1528;52.550;13.408;2023-03-31T05:54:40;14.27;;;13.77;;
3036;SDS011;1528;52.550;13.408;2023-03-31T05:57:27;21.33;;;20.50;;
3036;SDS011;1528;52.550;13.408;2023-03-31T06:00:13;20.37;;;19.37;;
3036;SDS011;1528;52.550;13.408;2023-03-31T06:03:00;23.00;;;21.90;;
3036;SDS011;1528;52.550;13.408;2023-03-31T06:05:46;20.90;;;20.10;;
3036;SDS011;1528;52.550;13.408;2023-03-31T06:08:33;17.83;;;16.77;;
3036;SDS011;1528;52.550;13.408;2023-03-31T06:11:20;24.57;;;23.57;;
3036;SDS011;1528;52.550;13.408;2023-03-31T06:14:06;14.67;;;13.67;;
3036;SDS011;1528;52.550;13.408;2023-03-31T06:16:52;15.27;;;14.07;;
3036;SDS011;1528;52.550;13.408;2023-03-31T06:19:37;27.20;;;26.00;;
3036;SDS011;1528;52.550;13.408;2023-03-31T06:22:23;23.20;;;22.40;;
3036;SDS011;1528;52.550;13.408;2023-03-31T06:25:10;23.47;;;22.37;;
3036;SDS011;1528;52.550;13.408;2023-03-31T06:27:56;22.87;;;22.03;;
3036;SDS011;1528;52.550;13.408;2023-03-31T06:30:42;22.77;;;21.67;;
3036;SDS011;1528;52.550;13.408;2023-03-31T06:33:27;19.83;;;18.77;;
3036;SDS011;1528;52.550;13.408;2023-03-31T06:36:14;16.67;;;15.90;;
3036;SDS011;1528;52.550;13.408;2023-03-31T06:39:01;19.13;;;18.43;;
3036;SDS011;1528;52.550;13.408;2023-03-31T06:41:48;18.30;;;17.37;;
3036;SDS011;1528;52.550;13.408;2023-03-31T06:44:33;19.50;;;18.50;;
3036;SDS011;1528;52.550;13.408;2023-03-31T06:47:19;22.77;;;21.63;;
3036;SDS011;1528;52.550;13.408;2023-03-31T06:50:05;16.87;;;16.13;;
3036;SDS011;1528;52.550;13.408;2023-03-31T06:52:52;20.50;;;19.60;;
3036;SDS011;1528;52.550;13.408;2023-03-31T06:55:38;20.80;;;19.93;;
3036;SDS011;1528;52.550;13.408;2023-03-31T06:58:26;20.90;;;20.00;;
3036;SDS011;1528;52.550;13.408;2023-03-31T07:01:14;20.13;;;19.23;;
3036;SDS011;1528;52.550;13.408;2023-03-31T07:04:00;22.60;;;21.60;;
3036;SDS011;1528;52.550;13.408;2023-03-31T07:06:45;19.50;;;18.60;;
3036;SDS011;1528;52.550;13.408;2023-03-31T07:09:31;22.07;;;20.97;;
3036;SDS011;1528;52.550;13.408;2023-03-31T07:12:17;19.80;;;19.00;;
3036;SDS011;1528;52.550;13.408;2023-03-31T07:15:05;22.63;;;21.80;;
3036;SDS011;1528;52.550;13.408;2023-03-31T07:17:51;23.73;;;21.83;;
3036;SDS011;1528;52.550;13.408;2023-03-31T07:20:46;22.60;;;21.50;;
3036;SDS011;1528;52.550;13.408;2023-03-31T07:23:33;19.30;;;18.50;;
3036;SDS011;1528;52.550;13.408;2023-03-31T07:26:22;25.93;;;24.70;;
3036;SDS011;1528;52.550;13.408;2023-03-31T07:29:07;20.97;;;19.73;;
3036;SDS011;1528;52.550;13.408;2023-03-31T07:31:54;26.07;;;24.80;;
3036;SDS011;1528;52.550;13.408;2023-03-31T07:34:40;19.63;;;18.80;;
3036;SDS011;1528;52.550;13.408;2023-03-31T07:37:25;20.83;;;20.03;;
3036;SDS011;1528;52.550;13.408;2023-03-31T07:40:12;19.63;;;18.43;;
3036;SDS011;1528;52.550;13.408;2023-03-31T07:42:59;24.27;;;23.30;;
3036;SDS011;1528;52.550;13.408;2023-03-31T07:45:44;22.93;;;21.80;;
3036;SDS011;1528;52.550;13.408;2023-03-31T07:48:32;22.10;;;21.10;;
3036;SDS011;1528;52.550;13.408;2023-03-31T07:51:18;23.43;;;22.53;;
3036;SDS011;1528;52.550;13.408;2023-03-31T07:54:05;25.53;;;24.50;;
3036;SDS011;1528;52.550;13.408;2023-03-31T07:56:51;22.57;;;21.43;;
3036;SDS011;1528;52.550;13.408;2023-03-31T07:59:36;20.40;;;19.60;;
3036;SDS011;1528;52.550;13.408;2023-03-31T08:02:22;21.67;;;20.57;;
3036;SDS011;1528;52.550;13.408;2023-03-31T08:05:09;22.60;;;21.70;;
3036;SDS011;1528;52.550;13.408;2023-03-31T08:07:56;23.93;;;22.83;;
3036;SDS011;1528;52.550;13.408;2023-03-31T08:10:42;21.93;;;21.03;;
3036;SDS011;1528;52.550;13.408;2023-03-31T08:13:27;20.27;;;19.47;;
3036;SDS011;1528;52.550;13.408;2023-03-31T08:16:13;22.63;;;21.43;;
3036;SDS011;1528;52.550;13.408;2023-03-31T08:18:59;22.53;;;21.73;;
3036;SDS011;1528;52.550;13.408;2023-03-31T08:21:47;22.20;;;21.20;;
3036;SDS011;1528;52.550;13.408;2023-03-31T08:24:32;22.90;;;21.87;;
3036;SDS011;1528;52.550;13.408;2023-03-31T08:27:18;20.63;;;19.73;;
3036;SDS011;1528;52.550;13.408;2023-03-31T08:30:04;21.30;;;20.47;;
3036;SDS011;1528;52.550;13.408;2023-03-31T08:32:51;21.50;;;20.60;;
3036;SDS011;1528;52.550;13.408;2023-03-31T08:35:36;13.77;;;13.23;;
3036;SDS011;1528;52.550;13.408;2023-03-31T08:38:23;24.43;;;23.30;;
3036;SDS011;1528;52.550;13.408;2023-03-31T08:41:26;21.93;;;21.03;;
3036;SDS011;1528;52.550;13.408;2023-03-31T08:44:22;16.67;;;16.00;;
3036;SDS011;1528;52.550;13.408;2023-03-31T08:47:14;15.23;;;14.23;;
3036;SDS011;1528;52.550;13.408;2023-03-31T08:50:04;16.03;;;15.03;;
3036;SDS011;1528;52.550;13.408;2023-03-31T08:52:56;12.70;;;12.10;;
3036;SDS011;1528;52.550;13.408;2023-03-31T08:55:49;15.80;;;14.97;;
3036;SDS011;1528;52.550;13.408;2023-03-31T08:58:38;14.90;;;14.20;;
3036;SDS011;1528;52.550;13.408;2023-03-31T09:01:26;18.77;;;17.93;;
3036;SDS011;1528;52.550;13.408;2023-03-31T09:04:23;18.40;;;17.70;;
3036;SDS011;1528;52.550;13.408;2023-03-31T09:07:30;17.37;;;16.57;;
3036;SDS011;1528;52.550;13.408;2023-03-31T09:10:23;13.17;;;12.37;;
3036;SDS011;1528;52.550;13.408;2023-03-31T09:16:43;13.00;;;12.40;;
3036;SDS011;1528;52.550;13.408;2023-03-31T09:19:35;14.07;;;13.33;;
3036;SDS011;1528;52.550;13.408;2023-03-31T09:22:24;14.77;;;14.10;;
3036;SDS011;1528;52.550;13.408;2023-03-31T09:25:13;15.63;;;14.60;;
3036;SDS011;1528;52.550;13.408;2023-03-31T09:28:03;14.70;;;13.80;;
3036;SDS011;1528;52.550;13.408;2023-03-31T09:30:57;15.70;;;14.90;;
3036;SDS011;1528;52.550;13.408;2023-03-31T09:33:54;17.70;;;16.90;;
3036;SDS011;1528;52.550;13.408;2023-03-31T09:36:44;14.63;;;13.80;;
3036;SDS011;1528;52.550;13.408;2023-03-31T09:39:30;15.70;;;14.80;;
3036;SDS011;1528;52.550;13.408;2023-03-31T09:42:16;19.40;;;18.63;;
3036;SDS011;1528;52.550;13.408;2023-03-31T09:45:03;17.70;;;16.53;;
3036;SDS011;1528;52.550;13.408;2023-03-31T09:47:50;17.57;;;16.90;;
3036;SDS011;1528;52.550;13.408;2023-03-31T09:50:40;18.70;;;17.80;;
3036;SDS011;1528;52.550;13.408;2023-03-31T09:53:30;16.93;;;16.23;;
3036;SDS011;1528;52.550;13.408;2023-03-31T09:56:30;18.17;;;17.50;;
3036;SDS011;1528;52.550;13.408;2023-03-31T09:59:19;17.13;;;16.13;;
3036;SDS011;1528;52.550;13.408;2023-03-31T10:02:15;17.57;;;16.97;;
3036;SDS011;1528;52.550;13.408;2023-03-31T10:05:21;19.13;;;18.43;;
3036;SDS011;1528;52.550;13.408;2023-03-31T10:08:23;20.97;;;19.87;;
3036;SDS011;1528;52.550;13.408;2023-03-31T10:11:13;17.27;;;16.63;;
3036;SDS011;1528;52.550;13.408;2023-03-31T10:14:00;17.90;;;17.20;;
3036;SDS011;1528;52.550;13.408;2023-03-31T10:16:48;19.10;;;18.30;;
3036;SDS011;1528;52.550;13.408;2023-03-31T10:19:36;20.23;;;19.23;;
3036;SDS011;1528;52.550;13.408;2023-03-31T10:22:30;19.20;;;18.40;;
3036;SDS011;1528;52.550;13.408;2023-03-31T10:25:20;19.03;;;18.40;;
3036;SDS011;1528;52.550;13.408;2023-03-31T10:28:09;22.93;;;21.73;;
3036;SDS011;1528;52.550;13.408;2023-03-31T10:30:56;17.23;;;16.40;;
3036;SDS011;1528;52.550;13.408;2023-03-31T10:33:48;15.70;;;15.10;;
3036;SDS011;1528;52.550;13.408;2023-03-31T10:36:35;18.27;;;17.27;;
3036;SDS011;1528;52.550;13.408;2023-03-31T10:39:21;18.17;;;17.47;;
3036;SDS011;1528;52.550;13.408;2023-03-31T10:42:20;16.90;;;16.30;;
3036;SDS011;1528;52.550;13.408;2023-03-31T10:45:12;18.67;;;17.87;;
3036;SDS011;1528;52.550;13.408;2023-03-31T10:48:15;16.23;;;15.50;;
3036;SDS011;1528;52.550;13.408;2023-03-31T10:51:03;17.50;;;16.90;;
3036;SDS011;1528;52.550;13.408;2023-03-31T10:53:51;16.40;;;15.80;;
3036;SDS011;1528;52.550;13.408;2023-03-31T10:56:38;17.53;;;16.87;;
3036;SDS011;1528;52.550;13.408;2023-03-31T10:59:34;17.80;;;17.10;;
3036;SDS011;1528;52.550;13.408;2023-03-31T11:02:42;17.77;;;17.07;;
3036;SDS011;1528;52.550;13.408;2023-03-31T11:05:44;15.77;;;15.03;;
3036;SDS011;1528;52.550;13.408;2023-03-31T11:08:38;20.17;;;19.07;;
3036;SDS011;1528;52.550;13.408;2023-03-31T11:11:39;19.70;;;18.90;;
3036;SDS011;1528;52.550;13.408;2023-03-31T11:14:41;21.03;;;20.13;;
3036;SDS011;1528;52.550;13.408;2023-03-31T11:17:34;15.93;;;15.17;;
3036;SDS011;1528;52.550;13.408;2023-03-31T11:20:30;20.60;;;19.90;;
3036;SDS011;1528;52.550;13.408;2023-03-31T11:23:21;15.90;;;15.43;;
3036;SDS011;1528;52.550;13.408;2023-03-31T11:26:15;19.33;;;18.33;;
3036;SDS011;1528;52.550;13.408;2023-03-31T11:29:11;16.43;;;15.83;;
3036;SDS011;1528;52.550;13.408;2023-03-31T11:35:32;17.30;;;16.60;;
3036;SDS011;1528;52.550;13.408;2023-03-31T11:38:37;22.57;;;21.37;;
3036;SDS011;1528;52.550;13.408;2023-03-31T11:41:36;17.50;;;16.90;;
3036;SDS011;1528;52.550;13.408;2023-03-31T11:44:27;17.80;;;17.20;;
3036;SDS011;1528;52.550;13.408;2023-03-31T11:47:19;20.37;;;19.27;;
3036;SDS011;1528;52.550;13.408;2023-03-31T11:50:10;19.10;;;18.30;;
3036;SDS011;1528;52.550;13.408;2023-03-31T11:52:59;15.70;;;15.10;;
3036;SDS011;1528;52.550;13.408;2023-03-31T11:55:47;21.63;;;20.73;;
3036;SDS011;1528;52.550;13.408;2023-03-31T11:58:35;16.07;;;15.37;;
3036;SDS011;1528;52.550;13.408;2023-03-31T12:01:26;17.50;;;16.50;;
3036;SDS011;1528;52.550;13.408;2023-03-31T12:04:19;18.80;;;17.90;;
3036;SDS011;1528;52.550;13.408;2023-03-31T12:07:18;20.53;;;19.53;;
3036;SDS011;1528;52.550;13.408;2023-03-31T12:10:11;17.00;;;16.20;;
3036;SDS011;1528;52.550;13.408;2023-03-31T12:13:04;12.17;;;11.70;;
3036;SDS011;1528;52.550;13.408;2023-03-31T12:16:03;15.30;;;14.70;;
3036;SDS011;1528;52.550;13.408;2023-03-31T12:18:56;13.63;;;12.90;;
3036;SDS011;1528;52.550;13.408;2023-03-31T12:21:46;15.50;;;14.50;;
3036;SDS011;1528;52.550;13.408;2023-03-31T12:24:36;18.10;;;17.07;;
3036;SDS011;1528;52.550;13.408;2023-03-31T12:27:22;17.27;;;16.23;;
3036;SDS011;1528;52.550;13.408;2023-03-31T12:30:12;18.10;;;17.10;;
3036;SDS011;1528;52.550;13.408;2023-03-31T12:33:15;16.93;;;16.17;;
3036;SDS011;1528;52.550;13.408;2023-03-31T12:36:08;17.33;;;16.53;;
3036;SDS011;1528;52.550;13.408;2023-03-31T12:39:06;17.07;;;16.30;;
3036;SDS011;1528;52.550;13.408;2023-03-31T12:42:13;17.53;;;16.80;;
3036;SDS011;1528;52.550;13.408;2023-03-31T12:45:25;16.07;;;15.37;;
3036;SDS011;1528;52.550;13.408;2023-03-31T12:48:19;16.33;;;15.50;;
3036;SDS011;1528;52.550;13.408;2023-03-31T12:51:19;17.80;;;16.90;;
3036;SDS011;1528;52.550;13.408;2023-03-31T12:54:17;15.43;;;14.63;;
3036;SDS011;1528;52.550;13.408;2023-03-31T12:57:18;19.07;;;18.27;;
3036;SDS011;1528;52.550;13.408;2023-03-31T13:00:21;16.67;;;15.90;;
3036;SDS011;1528;52.550;13.408;2023-03-31T13:09:39;15.77;;;15.27;;
3036;SDS011;1528;52.550;13.408;2023-03-31T13:12:30;15.40;;;14.80;;
3036;SDS011;1528;52.550;13.408;2023-03-31T13:15:18;16.20;;;15.60;;
3036;SDS011;1528;52.550;13.408;2023-03-31T13:18:04;15.20;;;14.50;;
3036;SDS011;1528;52.550;13.408;2023-03-31T13:20:57;18.60;;;17.70;;
3036;SDS011;1528;52.550;13.408;2023-03-31T13:23:44;17.67;;;17.03;;
3036;SDS011;1528;52.550;13.408;2023-03-31T13:26:41;16.20;;;15.53;;
3036;SDS011;1528;52.550;13.408;2023-03-31T13:29:39;14.00;;;13.40;;
3036;SDS011;1528;52.550;13.408;2023-03-31T13:32:26;17.17;;;16.37;;
3036;SDS011;1528;52.550;13.408;2023-03-31T13:35:13;18.70;;;17.83;;
3036;SDS011;1528;52.550;13.408;2023-03-31T13:38:06;16.13;;;15.43;;
3036;SDS011;1528;52.550;13.408;2023-03-31T13:44:16;15.53;;;14.70;;
3036;SDS011;1528;52.550;13.408;2023-03-31T13:47:31;16.03;;;15.20;;
3036;SDS011;1528;52.550;13.408;2023-03-31T13:50:37;18.20;;;16.80;;
3036;SDS011;1528;52.550;13.408;2023-03-31T13:53:32;17.00;;;15.70;;
3036;SDS011;1528;52.550;13.408;2023-03-31T13:56:33;18.20;;;17.20;;
3036;SDS011;1528;52.550;13.408;2023-03-31T13:59:38;21.63;;;20.53;;
3036;SDS011;1528;52.550;13.408;2023-03-31T14:02:46;18.33;;;17.33;;
3036;SDS011;1528;52.550;13.408;2023-03-31T14:05:44;20.17;;;19.17;;
3036;SDS011;1528;52.550;13.408;2023-03-31T14:08:41;20.27;;;19.47;;
3036;SDS011;1528;52.550;13.408;2023-03-31T14:11:33;19.33;;;18.50;;
3036;SDS011;1528;52.550;13.408;2023-03-31T14:14:18;17.00;;;16.30;;
3036;SDS011;1528;52.550;13.408;2023-03-31T14:17:07;18.30;;;17.37;;
3036;SDS011;1528;52.550;13.408;2023-03-31T14:20:04;15.43;;;14.73;;
3036;SDS011;1528;52.550;13.408;2023-03-31T14:23:10;14.90;;;14.30;;
3036;SDS011;1528;52.550;13.408;2023-03-31T14:26:05;14.47;;;13.67;;
3036;SDS011;1528;52.550;13.408;2023-03-31T14:28:58;17.53;;;16.83;;
3036;SDS011;1528;52.550;13.408;2023-03-31T14:31:57;15.27;;;14.70;;
3036;SDS011;1528;52.550;13.408;2023-03-31T14:34:52;12.27;;;11.83;;
3036;SDS011;1528;52.550;13.408;2023-03-31T14:37:47;11.60;;;11.10;;
3036;SDS011;1528;52.550;13.408;2023-03-31T14:40:33;12.20;;;11.70;;
3036;SDS011;1528;52.550;13.408;2023-03-31T14:43:27;11.60;;;11.20;;
3036;SDS011;1528;52.550;13.408;2023-03-31T14:46:20;12.13;;;11.73;;
3036;SDS011;1528;52.550;13.408;2023-03-31T14:49:20;13.03;;;12.63;;
3036;SDS011;1528;52.550;13.408;2023-03-31T14:52:14;13.43;;;13.03;;
3036;SDS011;1528;52.550;13.408;2023-03-31T14:55:02;12.70;;;12.30;;
3036;SDS011;1528;52.550;13.408;2023-03-31T14:57:48;13.63;;;13.23;;
3036;SDS011;1528;52.550;13.408;2023-03-31T15:00:36;14.07;;;13.47;;
3036;SDS011;1528;52.550;13.408;2023-03-31T15:03:23;12.10;;;11.40;;
3036;SDS011;1528;52.550;13.408;2023-03-31T15:06:11;11.50;;;11.10;;
3036;SDS011;1528;52.550;13.408;2023-03-31T15:08:57;12.17;;;11.70;;
3036;SDS011;1528;52.550;13.408;2023-03-31T15:11:52;13.33;;;12.83;;
3036;SDS011;1528;52.550;13.408;2023-03-31T15:14:41;12.40;;;11.90;;
3036;SDS011;1528;52.550;13.408;2023-03-31T15:17:30;13.57;;;13.07;;
3036;SDS011;1528;52.550;13.408;2023-03-31T15:20:24;12.80;;;12.40;;
3036;SDS011;1528;52.550;13.408;2023-03-31T15:23:19;12.60;;;12.20;;
3036;SDS011;1528;52.550;13.408;2023-03-31T15:26:07;12.87;;;12.13;;
3036;SDS011;1528;52.550;13.408;2023-03-31T15:28:59;11.03;;;10.63;;
3036;SDS011;1528;52.550;13.408;2023-03-31T15:31:48;12.40;;;11.80;;
3036;SDS011;1528;52.550;13.408;2023-03-31T15:34:34;13.27;;;12.63;;
3036;SDS011;1528;52.550;13.408;2023-03-31T15:37:20;14.10;;;13.70;;
3036;SDS011;1528;52.550;13.408;2023-03-31T15:40:10;17.07;;;16.47;;
3036;SDS011;1528;52.550;13.408;2023-03-31T15:43:03;15.13;;;14.63;;
3036;SDS011;1528;52.550;13.408;2023-03-31T15:45:53;14.03;;;13.53;;
3036;SDS011;1528;52.550;13.408;2023-03-31T15:48:47;15.10;;;14.63;;
3036;SDS011;1528;52.550;13.408;2023-03-31T15:51:36;18.40;;;17.80;;
3036;SDS011;1528;52.550;13.408;2023-03-31T15:54:29;15.83;;;15.30;;
3036;SDS011;1528;52.550;13.408;2023-03-31T15:57:18;13.90;;;13.30;;
3036;SDS011;1528;52.550;13.408;2023-03-31T16:00:05;15.50;;;15.00;;
3036;SDS011;1528;52.550;13.408;2023-03-31T16:03:17;14.00;;;13.57;;
3036;SDS011;1528;52.550;13.408;2023-03-31T16:06:07;13.10;;;12.70;;
3036;SDS011;1528;52.550;13.408;2023-03-31T16:08:59;14.70;;;14.20;;
3036;SDS011;1528;52.550;13.408;2023-03-31T16:11:49;15.73;;;15.13;;
3036;SDS011;1528;52.550;13.408;2023-03-31T16:14:36;15.87;;;15.17;;
3036;SDS011;1528;52.550;13.408;2023-03-31T16:17:30;16.57;;;15.97;;
3036;SDS011;1528;52.550;13.408;2023-03-31T16:20:21;15.67;;;15.17;;
3036;SDS011;1528;52.550;13.408;2023-03-31T16:23:11;15.30;;;14.77;;
3036;SDS011;1528;52.550;13.408;2023-03-31T16:25:59;16.53;;;15.80;;
3036;SDS011;1528;52.550;13.408;2023-03-31T16:28:48;11.33;;;10.80;;
3036;SDS011;1528;52.550;13.408;2023-03-31T16:31:35;14.00;;;13.40;;
3036;SDS011;1528;52.550;13.408;2023-03-31T16:34:23;15.37;;;14.83;;
3036;SDS011;1528;52.550;13.408;2023-03-31T16:37:10;16.03;;;15.53;;
3036;SDS011;1528;52.550;13.408;2023-03-31T16:39:55;16.43;;;15.83;;
3036;SDS011;1528;52.550;13.408;2023-03-31T16:42:41;14.67;;;14.07;;
3036;SDS011;1528;52.550;13.408;2023-03-31T16:45:27;14.13;;;13.53;;
3036;SDS011;1528;52.550;13.408;2023-03-31T16:48:12;14.80;;;14.20;;
3036;SDS011;1528;52.550;13.408;2023-03-31T16:50:59;15.57;;;15.07;;
3036;SDS011;1528;52.550;13.408;2023-03-31T16:53:46;17.03;;;16.43;;
3036;SDS011;1528;52.550;13.408;2023-03-31T16:56:32;16.97;;;16.47;;
3036;SDS011;1528;52.550;13.408;2023-03-31T16:59:17;14.57;;;13.87;;
3036;SDS011;1528;52.550;13.408;2023-03-31T17:02:07;12.47;;;12.03;;
3036;SDS011;1528;52.550;13.408;2023-03-31T17:04:54;15.03;;;14.53;;
3036;SDS011;1528;52.550;13.408;2023-03-31T17:07:40;13.73;;;13.33;;
3036;SDS011;1528;52.550;13.408;2023-03-31T17:10:27;14.00;;;13.30;;